sensor_id;sensor_type;location;lat;lon;timestamp;temperature;humidity
35258;DHT22;21385;50.878;8.050;2023-05-20T00:00:52;12.00;99.90
35258;DHT22;21385;50.878;8.050;2023-05-20T00:03:19;12.00;99.90
35258;DHT22;21385;50.878;8.050;2023-05-20T00:05:45;11.90;99.90
35258;DHT22;21385;50.878;8.050;2023-05-20T00:08:11;11.90;99.90
35258;DHT22;21385;50.878;8.050;2023-05-20T00:10:37;11.90;99.90
35258;DHT22;21385;50.878;8.050;2023-05-20T00:13:03;11.80;99.90
35258;DHT22;21385;50.878;8.050;2023-05-20T00:15:28;11.80;99.90
35258;DHT22;21385;50.878;8.050;2023-05-20T00:17:55;11.80;99.90
35258;DHT22;21385;50.878;8.050;2023-05-20T00:20:20;11.70;99.90
35258;DHT22;21385;50.878;8.050;2023-05-20T00:22:46;11.80;99.90
35258;DHT22;21385;50.878;8.050;2023-05-20T00:25:12;11.70;99.90
35258;DHT22;21385;50.878;8.050;2023-05-20T00:27:39;11.60;99.90
35258;DHT22;21385;50.878;8.050;2023-05-20T00:30:06;11.50;99.90
35258;DHT22;21385;50.878;8.050;2023-05-20T00:32:32;11.50;99.90
35258;DHT22;21385;50.878;8.050;2023-05-20T00:34:59;11.40;99.90
35258;DHT22;21385;50.878;8.050;2023-05-20T00:37:25;11.40;99.90
35258;DHT22;21385;50.878;8.050;2023-05-20T00:39:51;11.50;99.90
35258;DHT22;21385;50.878;8.050;2023-05-20T00:44:46;11.40;99.90
35258;DHT22;21385;50.878;8.050;2023-05-20T00:47:12;11.30;99.90
35258;DHT22;21385;50.878;8.050;2023-05-20T00:49:38;11.30;99.90
35258;DHT22;21385;50.878;8.050;2023-05-20T00:52:04;11.30;99.90
35258;DHT22;21385;50.878;8.050;2023-05-20T00:54:30;11.30;99.90
35258;DHT22;21385;50.878;8.050;2023-05-20T00:56:57;11.20;99.90
35258;DHT22;21385;50.878;8.050;2023-05-20T00:59:24;11.20;99.90
35258;DHT22;21385;50.878;8.050;2023-05-20T01:01:51;11.10;99.90
35258;DHT22;21385;50.878;8.050;2023-05-20T01:04:16;11.10;99.90
35258;DHT22;21385;50.878;8.050;2023-05-20T01:06:43;11.10;99.90
35258;DHT22;21385;50.878;8.050;2023-05-20T01:09:10;11.10;99.90
35258;DHT22;21385;50.878;8.050;2023-05-20T01:11:47;11.10;99.90
35258;DHT22;21385;50.878;8.050;2023-05-20T01:14:17;11.10;99.90
35258;DHT22;21385;50.878;8.050;2023-05-20T01:16:44;11.10;99.90
35258;DHT22;21385;50.878;8.050;2023-05-20T01:19:30;11.10;99.90
35258;DHT22;21385;50.878;8.050;2023-05-20T01:21:59;11.20;99.90
35258;DHT22;21385;50.878;8.050;2023-05-20T01:24:25;11.10;99.90
35258;DHT22;21385;50.878;8.050;2023-05-20T01:26:51;11.20;99.90
35258;DHT22;21385;50.878;8.050;2023-05-20T01:29:17;11.10;99.90
35258;DHT22;21385;50.878;8.050;2023-05-20T01:31:43;11.10;99.90
35258;DHT22;21385;50.878;8.050;2023-05-20T01:34:11;11.10;99.90
35258;DHT22;21385;50.878;8.050;2023-05-20T01:36:38;11.10;99.90
35258;DHT22;21385;50.878;8.050;2023-05-20T01:39:04;11.10;99.90
35258;DHT22;21385;50.878;8.050;2023-05-20T01:41:31;11.10;99.90
35258;DHT22;21385;50.878;8.050;2023-05-20T01:43:59;11.00;99.90
35258;DHT22;21385;50.878;8.050;2023-05-20T01:46:24;10.90;99.90
35258;DHT22;21385;50.878;8.050;2023-05-20T01:48:50;10.90;99.90
35258;DHT22;21385;50.878;8.050;2023-05-20T01:51:16;10.80;99.90
35258;DHT22;21385;50.878;8.050;2023-05-20T01:53:42;10.80;99.90
35258;DHT22;21385;50.878;8.050;2023-05-20T01:56:07;10.80;99.90
35258;DHT22;21385;50.878;8.050;2023-05-20T01:58:33;10.70;99.90
35258;DHT22;21385;50.878;8.050;2023-05-20T02:00:58;10.80;99.90
35258;DHT22;21385;50.878;8.050;2023-05-20T02:03:24;10.80;99.90
35258;DHT22;21385;50.878;8.050;2023-05-20T02:05:50;10.80;99.90
35258;DHT22;21385;50.878;8.050;2023-05-20T02:08:15;10.80;99.90
35258;DHT22;21385;50.878;8.050;2023-05-20T02:10:41;10.70;99.90
35258;DHT22;21385;50.878;8.050;2023-05-20T02:13:07;10.70;99.90
35258;DHT22;21385;50.878;8.050;2023-05-20T02:15:32;10.70;99.90
35258;DHT22;21385;50.878;8.050;2023-05-20T02:17:58;10.70;99.90
35258;DHT22;21385;50.878;8.050;2023-05-20T02:20:23;10.70;99.90
35258;DHT22;21385;50.878;8.050;2023-05-20T02:22:49;10.70;99.90
35258;DHT22;21385;50.878;8.050;2023-05-20T02:25:14;10.70;99.90
35258;DHT22;21385;50.878;8.050;2023-05-20T02:27:40;10.70;99.90
35258;DHT22;21385;50.878;8.050;2023-05-20T02:30:06;10.70;99.90
35258;DHT22;21385;50.878;8.050;2023-05-20T02:32:32;10.70;99.90
35258;DHT22;21385;50.878;8.050;2023-05-20T02:34:58;10.80;99.90
35258;DHT22;21385;50.878;8.050;2023-05-20T02:37:23;10.70;99.90
35258;DHT22;21385;50.878;8.050;2023-05-20T02:39:49;10.70;99.90
35258;DHT22;21385;50.878;8.050;2023-05-20T02:42:14;10.70;99.90
35258;DHT22;21385;50.878;8.050;2023-05-20T02:44:40;10.70;99.90
35258;DHT22;21385;50.878;8.050;2023-05-20T02:47:06;10.70;99.90
35258;DHT22;21385;50.878;8.050;2023-05-20T02:49:31;10.70;99.90
35258;DHT22;21385;50.878;8.050;2023-05-20T02:51:57;10.70;99.90
35258;DHT22;21385;50.878;8.050;2023-05-20T02:54:22;10.70;99.90
35258;DHT22;21385;50.878;8.050;2023-05-20T02:56:48;10.70;99.90
35258;DHT22;21385;50.878;8.050;2023-05-20T02:59:14;10.70;99.90
35258;DHT22;21385;50.878;8.050;2023-05-20T03:04:05;10.80;99.90
35258;DHT22;21385;50.878;8.050;2023-05-20T03:06:31;10.80;99.90
35258;DHT22;21385;50.878;8.050;2023-05-20T03:08:57;10.80;99.90
35258;DHT22;21385;50.878;8.050;2023-05-20T03:13:50;10.80;99.90
35258;DHT22;21385;50.878;8.050;2023-05-20T03:16:15;10.80;99.90
35258;DHT22;21385;50.878;8.050;2023-05-20T03:18:41;10.90;99.90
35258;DHT22;21385;50.878;8.050;2023-05-20T03:21:07;10.90;99.90
35258;DHT22;21385;50.878;8.050;2023-05-20T03:23:33;11.00;99.90
35258;DHT22;21385;50.878;8.050;2023-05-20T03:25:59;11.00;99.90
35258;DHT22;21385;50.878;8.050;2023-05-20T03:28:25;11.00;99.90
35258;DHT22;21385;50.878;8.050;2023-05-20T03:30:50;11.00;99.90
35258;DHT22;21385;50.878;8.050;2023-05-20T03:33:16;11.00;99.90
35258;DHT22;21385;50.878;8.050;2023-05-20T03:35:42;11.00;99.90
35258;DHT22;21385;50.878;8.050;2023-05-20T03:38:07;11.00;99.90
35258;DHT22;21385;50.878;8.050;2023-05-20T03:40:33;11.00;99.90
35258;DHT22;21385;50.878;8.050;2023-05-20T03:42:58;11.10;99.90
35258;DHT22;21385;50.878;8.050;2023-05-20T03:45:24;11.00;99.90
35258;DHT22;21385;50.878;8.050;2023-05-20T03:47:49;11.10;99.90
35258;DHT22;21385;50.878;8.050;2023-05-20T03:50:16;11.10;99.90
35258;DHT22;21385;50.878;8.050;2023-05-20T03:52:41;11.10;99.90
35258;DHT22;21385;50.878;8.050;2023-05-20T03:55:07;11.00;99.90
35258;DHT22;21385;50.878;8.050;2023-05-20T03:57:33;11.10;99.90
35258;DHT22;21385;50.878;8.050;2023-05-20T04:00:01;11.00;99.90
35258;DHT22;21385;50.878;8.050;2023-05-20T04:02:27;11.10;99.90
35258;DHT22;21385;50.878;8.050;2023-05-20T04:04:52;11.10;99.90
35258;DHT22;21385;50.878;8.050;2023-05-20T04:07:18;11.10;99.90
35258;DHT22;21385;50.878;8.050;2023-05-20T04:09:43;11.20;99.90
35258;DHT22;21385;50.878;8.050;2023-05-20T04:12:09;11.20;99.90
35258;DHT22;21385;50.878;8.050;2023-05-20T04:14:35;11.30;99.90
35258;DHT22;21385;50.878;8.050;2023-05-20T04:17:04;11.30;99.90
35258;DHT22;21385;50.878;8.050;2023-05-20T04:19:30;11.30;99.90
35258;DHT22;21385;50.878;8.050;2023-05-20T04:24:22;11.30;99.90
35258;DHT22;21385;50.878;8.050;2023-05-20T04:26:51;11.40;99.90
35258;DHT22;21385;50.878;8.050;2023-05-20T04:31:45;11.40;99.90
35258;DHT22;21385;50.878;8.050;2023-05-20T04:34:10;11.40;99.90
35258;DHT22;21385;50.878;8.050;2023-05-20T04:36:36;11.40;99.90
35258;DHT22;21385;50.878;8.050;2023-05-20T04:39:02;11.50;99.90
35258;DHT22;21385;50.878;8.050;2023-05-20T04:41:29;11.60;99.90
35258;DHT22;21385;50.878;8.050;2023-05-20T04:43:55;11.50;99.90
35258;DHT22;21385;50.878;8.050;2023-05-20T04:46:25;11.60;99.90
35258;DHT22;21385;50.878;8.050;2023-05-20T04:48:51;11.70;99.90
35258;DHT22;21385;50.878;8.050;2023-05-20T04:51:18;11.70;99.90
35258;DHT22;21385;50.878;8.050;2023-05-20T04:53:43;11.80;99.90
35258;DHT22;21385;50.878;8.050;2023-05-20T04:56:10;11.90;99.90
35258;DHT22;21385;50.878;8.050;2023-05-20T04:58:35;12.00;99.90
35258;DHT22;21385;50.878;8.050;2023-05-20T05:01:01;12.10;99.90
35258;DHT22;21385;50.878;8.050;2023-05-20T05:03:27;12.10;99.90
35258;DHT22;21385;50.878;8.050;2023-05-20T05:05:58;12.20;99.90
35258;DHT22;21385;50.878;8.050;2023-05-20T05:08:24;12.30;99.90
35258;DHT22;21385;50.878;8.050;2023-05-20T05:10:51;12.40;99.90
35258;DHT22;21385;50.878;8.050;2023-05-20T05:13:17;12.50;99.90
35258;DHT22;21385;50.878;8.050;2023-05-20T05:15:42;12.60;99.90
35258;DHT22;21385;50.878;8.050;2023-05-20T05:18:08;12.70;99.90
35258;DHT22;21385;50.878;8.050;2023-05-20T05:20:33;12.80;99.90
35258;DHT22;21385;50.878;8.050;2023-05-20T05:22:59;12.90;99.90
35258;DHT22;21385;50.878;8.050;2023-05-20T05:25:25;12.90;99.90
35258;DHT22;21385;50.878;8.050;2023-05-20T05:27:50;13.00;99.90
35258;DHT22;21385;50.878;8.050;2023-05-20T05:30:16;13.10;99.90
35258;DHT22;21385;50.878;8.050;2023-05-20T05:32:41;13.10;99.90
35258;DHT22;21385;50.878;8.050;2023-05-20T05:35:08;13.20;99.90
35258;DHT22;21385;50.878;8.050;2023-05-20T05:37:33;13.30;99.90
35258;DHT22;21385;50.878;8.050;2023-05-20T05:39:59;13.40;99.90
35258;DHT22;21385;50.878;8.050;2023-05-20T05:42:24;13.50;99.90
35258;DHT22;21385;50.878;8.050;2023-05-20T05:44:50;13.50;99.90
35258;DHT22;21385;50.878;8.050;2023-05-20T05:47:16;13.50;99.90
35258;DHT22;21385;50.878;8.050;2023-05-20T05:49:42;13.60;99.90
35258;DHT22;21385;50.878;8.050;2023-05-20T05:52:07;13.70;99.90
35258;DHT22;21385;50.878;8.050;2023-05-20T05:54:33;13.80;99.90
35258;DHT22;21385;50.878;8.050;2023-05-20T05:56:58;13.80;99.90
35258;DHT22;21385;50.878;8.050;2023-05-20T05:59:24;13.90;99.90
35258;DHT22;21385;50.878;8.050;2023-05-20T06:01:50;14.00;99.90
35258;DHT22;21385;50.878;8.050;2023-05-20T06:04:15;14.10;99.90
35258;DHT22;21385;50.878;8.050;2023-05-20T06:06:41;14.10;99.90
35258;DHT22;21385;50.878;8.050;2023-05-20T06:09:07;14.20;99.90
35258;DHT22;21385;50.878;8.050;2023-05-20T06:11:32;14.20;99.90
35258;DHT22;21385;50.878;8.050;2023-05-20T06:13:58;14.30;99.90
35258;DHT22;21385;50.878;8.050;2023-05-20T06:16:24;14.30;99.90
35258;DHT22;21385;50.878;8.050;2023-05-20T06:18:50;14.30;99.90
35258;DHT22;21385;50.878;8.050;2023-05-20T06:21:17;14.40;99.90
35258;DHT22;21385;50.878;8.050;2023-05-20T06:23:43;14.50;99.90
35258;DHT22;21385;50.878;8.050;2023-05-20T06:26:09;14.60;99.90
35258;DHT22;21385;50.878;8.050;2023-05-20T06:28:34;14.50;99.90
35258;DHT22;21385;50.878;8.050;2023-05-20T06:31:00;14.70;99.90
35258;DHT22;21385;50.878;8.050;2023-05-20T06:33:26;14.70;99.90
35258;DHT22;21385;50.878;8.050;2023-05-20T06:35:54;14.70;99.90
35258;DHT22;21385;50.878;8.050;2023-05-20T06:38:20;14.70;99.90
35258;DHT22;21385;50.878;8.050;2023-05-20T06:40:46;14.80;99.90
35258;DHT22;21385;50.878;8.050;2023-05-20T06:43:13;14.80;99.90
35258;DHT22;21385;50.878;8.050;2023-05-20T06:45:39;14.80;99.90
35258;DHT22;21385;50.878;8.050;2023-05-20T06:48:04;14.90;99.90
35258;DHT22;21385;50.878;8.050;2023-05-20T06:50:30;15.00;99.90
35258;DHT22;21385;50.878;8.050;2023-05-20T06:52:56;15.20;99.90
35258;DHT22;21385;50.878;8.050;2023-05-20T06:55:21;16.00;99.90
35258;DHT22;21385;50.878;8.050;2023-05-20T06:57:47;16.70;99.90
35258;DHT22;21385;50.878;8.050;2023-05-20T07:00:13;17.10;99.90
35258;DHT22;21385;50.878;8.050;2023-05-20T07:02:39;17.20;99.90
35258;DHT22;21385;50.878;8.050;2023-05-20T07:05:05;17.00;99.90
35258;DHT22;21385;50.878;8.050;2023-05-20T07:07:31;16.80;99.90
35258;DHT22;21385;50.878;8.050;2023-05-20T07:09:57;16.60;99.90
35258;DHT22;21385;50.878;8.050;2023-05-20T07:12:22;16.40;99.90
35258;DHT22;21385;50.878;8.050;2023-05-20T07:14:48;16.30;99.90
35258;DHT22;21385;50.878;8.050;2023-05-20T07:17:14;16.20;99.90
35258;DHT22;21385;50.878;8.050;2023-05-20T07:19:40;16.00;99.90
35258;DHT22;21385;50.878;8.050;2023-05-20T07:22:05;15.90;99.90
35258;DHT22;21385;50.878;8.050;2023-05-20T07:24:31;15.80;99.90
35258;DHT22;21385;50.878;8.050;2023-05-20T07:26:57;15.70;99.90
35258;DHT22;21385;50.878;8.050;2023-05-20T07:29:22;15.70;99.90
35258;DHT22;21385;50.878;8.050;2023-05-20T07:31:48;15.70;99.90
35258;DHT22;21385;50.878;8.050;2023-05-20T07:34:14;15.70;99.90
35258;DHT22;21385;50.878;8.050;2023-05-20T07:36:39;15.70;99.90
35258;DHT22;21385;50.878;8.050;2023-05-20T07:39:06;15.70;99.90
35258;DHT22;21385;50.878;8.050;2023-05-20T07:41:33;15.70;99.90
35258;DHT22;21385;50.878;8.050;2023-05-20T07:44:00;15.80;99.90
35258;DHT22;21385;50.878;8.050;2023-05-20T07:46:26;15.80;99.90
35258;DHT22;21385;50.878;8.050;2023-05-20T07:48:51;15.80;99.90
35258;DHT22;21385;50.878;8.050;2023-05-20T07:51:17;15.80;99.90
35258;DHT22;21385;50.878;8.050;2023-05-20T07:53:43;15.90;99.90
35258;DHT22;21385;50.878;8.050;2023-05-20T07:56:09;15.90;99.90
35258;DHT22;21385;50.878;8.050;2023-05-20T07:58:34;15.90;99.90
35258;DHT22;21385;50.878;8.050;2023-05-20T08:01:00;15.90;99.90
35258;DHT22;21385;50.878;8.050;2023-05-20T08:03:25;15.90;99.90
35258;DHT22;21385;50.878;8.050;2023-05-20T08:05:51;15.90;99.90
35258;DHT22;21385;50.878;8.050;2023-05-20T08:08:17;15.90;99.90
35258;DHT22;21385;50.878;8.050;2023-05-20T08:10:42;15.90;99.90
35258;DHT22;21385;50.878;8.050;2023-05-20T08:13:08;15.80;99.90
35258;DHT22;21385;50.878;8.050;2023-05-20T08:15:35;15.90;99.90
35258;DHT22;21385;50.878;8.050;2023-05-20T08:18:00;15.90;99.90
35258;DHT22;21385;50.878;8.050;2023-05-20T08:20:27;15.90;99.90
35258;DHT22;21385;50.878;8.050;2023-05-20T08:22:53;15.90;99.90
35258;DHT22;21385;50.878;8.050;2023-05-20T08:25:19;15.90;99.90
35258;DHT22;21385;50.878;8.050;2023-05-20T08:27:45;16.00;99.90
35258;DHT22;21385;50.878;8.050;2023-05-20T08:30:10;16.10;99.90
35258;DHT22;21385;50.878;8.050;2023-05-20T08:32:36;16.10;99.90
35258;DHT22;21385;50.878;8.050;2023-05-20T08:35:02;16.20;99.90
35258;DHT22;21385;50.878;8.050;2023-05-20T08:37:29;16.30;99.90
35258;DHT22;21385;50.878;8.050;2023-05-20T08:39:55;16.40;99.90
35258;DHT22;21385;50.878;8.050;2023-05-20T08:42:22;16.40;99.90
35258;DHT22;21385;50.878;8.050;2023-05-20T08:44:50;16.40;99.90
35258;DHT22;21385;50.878;8.050;2023-05-20T08:47:16;16.40;99.90
35258;DHT22;21385;50.878;8.050;2023-05-20T08:49:42;16.40;99.90
35258;DHT22;21385;50.878;8.050;2023-05-20T08:52:09;16.40;99.90
35258;DHT22;21385;50.878;8.050;2023-05-20T08:54:43;16.50;99.90
35258;DHT22;21385;50.878;8.050;2023-05-20T08:57:10;16.60;99.90
35258;DHT22;21385;50.878;8.050;2023-05-20T08:59:40;16.70;99.90
35258;DHT22;21385;50.878;8.050;2023-05-20T09:02:07;16.70;99.90
35258;DHT22;21385;50.878;8.050;2023-05-20T09:04:33;16.70;99.90
35258;DHT22;21385;50.878;8.050;2023-05-20T09:06:58;16.70;99.90
35258;DHT22;21385;50.878;8.050;2023-05-20T09:09:24;16.80;99.90
35258;DHT22;21385;50.878;8.050;2023-05-20T09:11:50;16.90;99.90
35258;DHT22;21385;50.878;8.050;2023-05-20T09:14:16;16.90;99.90
35258;DHT22;21385;50.878;8.050;2023-05-20T09:16:41;17.00;99.90
35258;DHT22;21385;50.878;8.050;2023-05-20T09:19:08;17.50;99.90
35258;DHT22;21385;50.878;8.050;2023-05-20T09:21:34;17.80;99.90
35258;DHT22;21385;50.878;8.050;2023-05-20T09:24:03;18.00;99.90
35258;DHT22;21385;50.878;8.050;2023-05-20T09:26:29;17.90;99.90
35258;DHT22;21385;50.878;8.050;2023-05-20T09:28:58;18.00;99.90
35258;DHT22;21385;50.878;8.050;2023-05-20T09:31:30;18.10;99.90
35258;DHT22;21385;50.878;8.050;2023-05-20T09:33:59;18.30;99.90
35258;DHT22;21385;50.878;8.050;2023-05-20T09:36:27;18.30;99.90
35258;DHT22;21385;50.878;8.050;2023-05-20T09:38:57;18.30;99.90
35258;DHT22;21385;50.878;8.050;2023-05-20T09:41:31;18.30;99.90
35258;DHT22;21385;50.878;8.050;2023-05-20T09:43:59;18.50;99.90
35258;DHT22;21385;50.878;8.050;2023-05-20T09:46:25;18.60;99.90
35258;DHT22;21385;50.878;8.050;2023-05-20T09:48:52;18.70;99.90
35258;DHT22;21385;50.878;8.050;2023-05-20T09:51:19;18.80;99.90
35258;DHT22;21385;50.878;8.050;2023-05-20T09:53:45;18.80;99.90
35258;DHT22;21385;50.878;8.050;2023-05-20T09:56:10;18.80;99.90
35258;DHT22;21385;50.878;8.050;2023-05-20T09:58:37;18.80;99.90
35258;DHT22;21385;50.878;8.050;2023-05-20T10:01:03;18.90;99.90
35258;DHT22;21385;50.878;8.050;2023-05-20T10:03:30;18.90;99.90
35258;DHT22;21385;50.878;8.050;2023-05-20T10:09:00;18.90;99.90
35258;DHT22;21385;50.878;8.050;2023-05-20T10:11:52;19.00;99.90
35258;DHT22;21385;50.878;8.050;2023-05-20T10:19:49;19.00;99.90
35258;DHT22;21385;50.878;8.050;2023-05-20T10:22:25;19.10;99.90
35258;DHT22;21385;50.878;8.050;2023-05-20T10:24:58;19.00;99.90
35258;DHT22;21385;50.878;8.050;2023-05-20T10:27:23;18.90;99.90
35258;DHT22;21385;50.878;8.050;2023-05-20T10:32:29;18.70;99.90
35258;DHT22;21385;50.878;8.050;2023-05-20T10:35:01;18.80;99.90
35258;DHT22;21385;50.878;8.050;2023-05-20T10:37:42;18.90;99.90
35258;DHT22;21385;50.878;8.050;2023-05-20T10:40:09;19.10;99.90
35258;DHT22;21385;50.878;8.050;2023-05-20T10:42:36;19.10;99.90
35258;DHT22;21385;50.878;8.050;2023-05-20T10:45:01;19.20;99.90
35258;DHT22;21385;50.878;8.050;2023-05-20T10:47:27;19.10;99.90
35258;DHT22;21385;50.878;8.050;2023-05-20T10:49:53;19.20;99.90
35258;DHT22;21385;50.878;8.050;2023-05-20T10:52:19;19.20;99.90
35258;DHT22;21385;50.878;8.050;2023-05-20T10:54:58;19.30;99.90
35258;DHT22;21385;50.878;8.050;2023-05-20T10:57:28;19.30;99.90
35258;DHT22;21385;50.878;8.050;2023-05-20T10:59:54;19.30;99.90
35258;DHT22;21385;50.878;8.050;2023-05-20T11:02:21;19.30;99.90
35258;DHT22;21385;50.878;8.050;2023-05-20T11:04:52;19.30;99.90
35258;DHT22;21385;50.878;8.050;2023-05-20T11:07:27;19.20;99.90
35258;DHT22;21385;50.878;8.050;2023-05-20T11:09:54;19.40;99.90
35258;DHT22;21385;50.878;8.050;2023-05-20T11:12:21;19.40;99.90
35258;DHT22;21385;50.878;8.050;2023-05-20T11:14:48;19.40;99.90
35258;DHT22;21385;50.878;8.050;2023-05-20T11:17:15;19.50;99.90
35258;DHT22;21385;50.878;8.050;2023-05-20T11:19:40;19.70;99.90
35258;DHT22;21385;50.878;8.050;2023-05-20T11:22:06;19.60;99.90
35258;DHT22;21385;50.878;8.050;2023-05-20T11:24:32;19.60;99.90
35258;DHT22;21385;50.878;8.050;2023-05-20T11:26:59;19.50;99.90
35258;DHT22;21385;50.878;8.050;2023-05-20T11:29:26;19.50;99.90
35258;DHT22;21385;50.878;8.050;2023-05-20T11:31:53;19.60;99.90
35258;DHT22;21385;50.878;8.050;2023-05-20T11:34:20;19.70;99.90
35258;DHT22;21385;50.878;8.050;2023-05-20T11:36:46;19.80;99.90
35258;DHT22;21385;50.878;8.050;2023-05-20T11:39:13;19.70;99.90
35258;DHT22;21385;50.878;8.050;2023-05-20T11:41:41;19.80;99.90
35258;DHT22;21385;50.878;8.050;2023-05-20T11:44:10;19.90;99.90
35258;DHT22;21385;50.878;8.050;2023-05-20T11:46:45;20.00;99.90
35258;DHT22;21385;50.878;8.050;2023-05-20T11:49:15;19.90;99.90
35258;DHT22;21385;50.878;8.050;2023-05-20T11:51:42;19.90;99.90
35258;DHT22;21385;50.878;8.050;2023-05-20T11:54:08;19.80;99.90
35258;DHT22;21385;50.878;8.050;2023-05-20T11:56:36;19.80;99.90
35258;DHT22;21385;50.878;8.050;2023-05-20T11:59:06;19.70;99.90
35258;DHT22;21385;50.878;8.050;2023-05-20T12:01:37;19.60;99.90
35258;DHT22;21385;50.878;8.050;2023-05-20T12:04:08;19.70;99.90
35258;DHT22;21385;50.878;8.050;2023-05-20T12:06:34;19.80;99.90
35258;DHT22;21385;50.878;8.050;2023-05-20T12:09:02;19.80;99.90
35258;DHT22;21385;50.878;8.050;2023-05-20T12:11:36;19.90;99.90
35258;DHT22;21385;50.878;8.050;2023-05-20T12:14:02;19.80;99.90
35258;DHT22;21385;50.878;8.050;2023-05-20T12:16:30;19.60;99.90
35258;DHT22;21385;50.878;8.050;2023-05-20T12:18:56;19.50;99.90
35258;DHT22;21385;50.878;8.050;2023-05-20T12:21:22;19.30;99.90
35258;DHT22;21385;50.878;8.050;2023-05-20T12:23:47;19.40;99.90
35258;DHT22;21385;50.878;8.050;2023-05-20T12:26:13;19.60;99.90
35258;DHT22;21385;50.878;8.050;2023-05-20T12:28:38;19.50;99.90
35258;DHT22;21385;50.878;8.050;2023-05-20T12:31:04;19.40;99.90
35258;DHT22;21385;50.878;8.050;2023-05-20T12:33:30;19.40;99.90
35258;DHT22;21385;50.878;8.050;2023-05-20T12:35:56;19.30;99.90
35258;DHT22;21385;50.878;8.050;2023-05-20T12:38:22;19.30;99.90
35258;DHT22;21385;50.878;8.050;2023-05-20T12:40:47;19.30;99.90
35258;DHT22;21385;50.878;8.050;2023-05-20T12:43:13;19.20;99.90
35258;DHT22;21385;50.878;8.050;2023-05-20T12:45:38;19.20;99.90
35258;DHT22;21385;50.878;8.050;2023-05-20T12:48:04;19.20;99.90
35258;DHT22;21385;50.878;8.050;2023-05-20T12:50:32;19.30;99.90
35258;DHT22;21385;50.878;8.050;2023-05-20T12:52:57;19.30;99.90
35258;DHT22;21385;50.878;8.050;2023-05-20T12:55:23;19.40;99.90
35258;DHT22;21385;50.878;8.050;2023-05-20T12:57:49;19.50;99.90
35258;DHT22;21385;50.878;8.050;2023-05-20T13:00:15;19.50;99.90
35258;DHT22;21385;50.878;8.050;2023-05-20T13:02:41;19.60;99.90
35258;DHT22;21385;50.878;8.050;2023-05-20T13:05:07;19.70;99.90
35258;DHT22;21385;50.878;8.050;2023-05-20T13:07:33;19.70;99.90
35258;DHT22;21385;50.878;8.050;2023-05-20T13:09:59;19.70;99.90
35258;DHT22;21385;50.878;8.050;2023-05-20T13:12:24;19.80;99.90
35258;DHT22;21385;50.878;8.050;2023-05-20T13:14:50;19.90;99.90
35258;DHT22;21385;50.878;8.050;2023-05-20T13:17:17;19.90;99.90
35258;DHT22;21385;50.878;8.050;2023-05-20T13:19:43;19.90;99.90
35258;DHT22;21385;50.878;8.050;2023-05-20T13:22:10;19.90;99.90
35258;DHT22;21385;50.878;8.050;2023-05-20T13:24:36;19.90;99.90
35258;DHT22;21385;50.878;8.050;2023-05-20T13:27:01;20.00;99.90
35258;DHT22;21385;50.878;8.050;2023-05-20T13:29:27;20.00;99.80
35258;DHT22;21385;50.878;8.050;2023-05-20T13:31:53;20.00;99.60
35258;DHT22;21385;50.878;8.050;2023-05-20T13:34:19;20.10;99.90
35258;DHT22;21385;50.878;8.050;2023-05-20T13:36:45;20.10;99.80
35258;DHT22;21385;50.878;8.050;2023-05-20T13:39:13;20.20;99.90
35258;DHT22;21385;50.878;8.050;2023-05-20T13:41:39;20.30;99.90
35258;DHT22;21385;50.878;8.050;2023-05-20T13:44:04;20.60;98.80
35258;DHT22;21385;50.878;8.050;2023-05-20T13:46:30;20.60;99.30
35258;DHT22;21385;50.878;8.050;2023-05-20T13:48:56;20.60;98.70
35258;DHT22;21385;50.878;8.050;2023-05-20T13:51:21;20.60;99.00
35258;DHT22;21385;50.878;8.050;2023-05-20T13:53:47;20.70;99.10
35258;DHT22;21385;50.878;8.050;2023-05-20T13:56:12;20.90;98.60
35258;DHT22;21385;50.878;8.050;2023-05-20T13:58:38;21.30;98.30
35258;DHT22;21385;50.878;8.050;2023-05-20T14:01:04;21.70;97.40
35258;DHT22;21385;50.878;8.050;2023-05-20T14:03:31;21.80;97.10
35258;DHT22;21385;50.878;8.050;2023-05-20T14:05:57;21.80;96.80
35258;DHT22;21385;50.878;8.050;2023-05-20T14:08:23;21.70;96.30
35258;DHT22;21385;50.878;8.050;2023-05-20T14:10:49;21.70;96.40
35258;DHT22;21385;50.878;8.050;2023-05-20T14:13:19;21.60;96.70
35258;DHT22;21385;50.878;8.050;2023-05-20T14:15:46;21.50;96.60
35258;DHT22;21385;50.878;8.050;2023-05-20T14:18:11;21.40;96.30
35258;DHT22;21385;50.878;8.050;2023-05-20T14:20:37;21.40;96.40
35258;DHT22;21385;50.878;8.050;2023-05-20T14:23:02;21.30;96.80
35258;DHT22;21385;50.878;8.050;2023-05-20T14:25:28;21.10;96.60
35258;DHT22;21385;50.878;8.050;2023-05-20T14:27:54;20.90;96.90
35258;DHT22;21385;50.878;8.050;2023-05-20T14:30:19;20.70;97.60
35258;DHT22;21385;50.878;8.050;2023-05-20T14:32:45;20.70;97.80
35258;DHT22;21385;50.878;8.050;2023-05-20T14:35:10;20.60;98.20
35258;DHT22;21385;50.878;8.050;2023-05-20T14:37:36;20.60;97.90
35258;DHT22;21385;50.878;8.050;2023-05-20T14:40:03;20.50;98.80
35258;DHT22;21385;50.878;8.050;2023-05-20T14:42:29;20.50;98.20
35258;DHT22;21385;50.878;8.050;2023-05-20T14:44:55;20.50;98.90
35258;DHT22;21385;50.878;8.050;2023-05-20T14:47:21;20.50;99.10
35258;DHT22;21385;50.878;8.050;2023-05-20T14:49:46;20.50;99.20
35258;DHT22;21385;50.878;8.050;2023-05-20T14:52:14;20.50;98.60
35258;DHT22;21385;50.878;8.050;2023-05-20T14:54:41;20.40;99.10
35258;DHT22;21385;50.878;8.050;2023-05-20T14:57:06;20.40;98.50
35258;DHT22;21385;50.878;8.050;2023-05-20T14:59:32;20.40;98.70
35258;DHT22;21385;50.878;8.050;2023-05-20T15:01:58;20.30;98.90
35258;DHT22;21385;50.878;8.050;2023-05-20T15:04:24;20.30;99.30
35258;DHT22;21385;50.878;8.050;2023-05-20T15:06:50;20.30;99.10
35258;DHT22;21385;50.878;8.050;2023-05-20T15:09:16;20.20;99.20
35258;DHT22;21385;50.878;8.050;2023-05-20T15:11:42;20.20;98.80
35258;DHT22;21385;50.878;8.050;2023-05-20T15:14:08;20.20;98.90
35258;DHT22;21385;50.878;8.050;2023-05-20T15:16:33;20.10;99.30
35258;DHT22;21385;50.878;8.050;2023-05-20T15:18:59;20.10;99.50
35258;DHT22;21385;50.878;8.050;2023-05-20T15:21:24;20.20;99.30
35258;DHT22;21385;50.878;8.050;2023-05-20T15:23:50;20.30;99.10
35258;DHT22;21385;50.878;8.050;2023-05-20T15:26:16;20.50;99.20
35258;DHT22;21385;50.878;8.050;2023-05-20T15:28:41;20.60;98.90
35258;DHT22;21385;50.878;8.050;2023-05-20T15:31:07;20.70;98.20
35258;DHT22;21385;50.878;8.050;2023-05-20T15:33:33;20.70;97.70
35258;DHT22;21385;50.878;8.050;2023-05-20T15:35:59;20.60;97.90
35258;DHT22;21385;50.878;8.050;2023-05-20T15:38:25;20.60;98.60
35258;DHT22;21385;50.878;8.050;2023-05-20T15:40:50;20.70;99.00
35258;DHT22;21385;50.878;8.050;2023-05-20T15:43:16;20.70;98.40
35258;DHT22;21385;50.878;8.050;2023-05-20T15:45:43;20.70;98.90
35258;DHT22;21385;50.878;8.050;2023-05-20T15:48:09;21.00;99.00